sensor_id;sensor_type;location;lat;lon;timestamp;temperature;humidity
43999;DHT22;51319;52.162;5.302;2022-07-11T00:02:14;18.50;83.60
43999;DHT22;51319;52.162;5.302;2022-07-11T00:04:41;18.50;83.60
43999;DHT22;51319;52.162;5.302;2022-07-11T00:07:15;18.40;83.60
43999;DHT22;51319;52.162;5.302;2022-07-11T00:09:41;18.40;83.60
43999;DHT22;51319;52.162;5.302;2022-07-11T00:12:09;18.40;83.70
43999;DHT22;51319;52.162;5.302;2022-07-11T00:14:35;18.40;83.80
43999;DHT22;51319;52.162;5.302;2022-07-11T00:17:02;18.40;83.80
43999;DHT22;51319;52.162;5.302;2022-07-11T00:19:28;18.40;83.80
43999;DHT22;51319;52.162;5.302;2022-07-11T00:21:55;18.40;84.00
43999;DHT22;51319;52.162;5.302;2022-07-11T00:24:21;18.40;84.00
43999;DHT22;51319;52.162;5.302;2022-07-11T00:26:48;18.40;84.00
43999;DHT22;51319;52.162;5.302;2022-07-11T00:29:15;18.40;84.10
43999;DHT22;51319;52.162;5.302;2022-07-11T00:31:42;18.40;84.10
43999;DHT22;51319;52.162;5.302;2022-07-11T00:34:08;18.40;84.30
43999;DHT22;51319;52.162;5.302;2022-07-11T00:36:35;18.40;84.30
43999;DHT22;51319;52.162;5.302;2022-07-11T00:39:01;18.40;84.20
43999;DHT22;51319;52.162;5.302;2022-07-11T00:41:27;18.40;84.30
43999;DHT22;51319;52.162;5.302;2022-07-11T00:43:56;18.40;84.10
43999;DHT22;51319;52.162;5.302;2022-07-11T00:46:24;18.40;84.20
43999;DHT22;51319;52.162;5.302;2022-07-11T00:48:52;18.40;84.30
43999;DHT22;51319;52.162;5.302;2022-07-11T00:51:20;18.40;84.20
43999;DHT22;51319;52.162;5.302;2022-07-11T00:53:48;18.40;84.30
43999;DHT22;51319;52.162;5.302;2022-07-11T00:56:16;18.40;84.30
43999;DHT22;51319;52.162;5.302;2022-07-11T00:58:42;18.40;84.30
43999;DHT22;51319;52.162;5.302;2022-07-11T01:01:09;18.40;84.30
43999;DHT22;51319;52.162;5.302;2022-07-11T01:03:35;18.40;84.30
43999;DHT22;51319;52.162;5.302;2022-07-11T01:06:07;18.40;84.40
43999;DHT22;51319;52.162;5.302;2022-07-11T01:08:34;18.40;84.60
43999;DHT22;51319;52.162;5.302;2022-07-11T01:11:02;18.40;84.60
43999;DHT22;51319;52.162;5.302;2022-07-11T01:13:29;18.40;84.50
43999;DHT22;51319;52.162;5.302;2022-07-11T01:16:12;18.40;84.60
43999;DHT22;51319;52.162;5.302;2022-07-11T01:18:41;18.40;84.70
43999;DHT22;51319;52.162;5.302;2022-07-11T01:21:35;18.40;84.60
43999;DHT22;51319;52.162;5.302;2022-07-11T01:24:02;18.30;84.60
43999;DHT22;51319;52.162;5.302;2022-07-11T01:26:29;18.30;85.10
43999;DHT22;51319;52.162;5.302;2022-07-11T01:29:08;18.30;84.80
43999;DHT22;51319;52.162;5.302;2022-07-11T01:31:37;18.30;84.90
43999;DHT22;51319;52.162;5.302;2022-07-11T01:34:04;18.30;84.80
43999;DHT22;51319;52.162;5.302;2022-07-11T01:36:31;18.30;84.80
43999;DHT22;51319;52.162;5.302;2022-07-11T01:38:58;18.30;84.80
43999;DHT22;51319;52.162;5.302;2022-07-11T01:41:24;18.30;84.80
43999;DHT22;51319;52.162;5.302;2022-07-11T01:43:51;18.30;84.70
43999;DHT22;51319;52.162;5.302;2022-07-11T01:46:17;18.30;84.60
43999;DHT22;51319;52.162;5.302;2022-07-11T01:48:45;18.30;84.70
43999;DHT22;51319;52.162;5.302;2022-07-11T01:51:11;18.30;84.80
43999;DHT22;51319;52.162;5.302;2022-07-11T01:53:37;18.30;84.90
43999;DHT22;51319;52.162;5.302;2022-07-11T01:56:04;18.30;84.90
43999;DHT22;51319;52.162;5.302;2022-07-11T01:58:50;18.30;84.80
43999;DHT22;51319;52.162;5.302;2022-07-11T02:01:17;18.40;84.50
43999;DHT22;51319;52.162;5.302;2022-07-11T02:03:43;18.30;84.50
43999;DHT22;51319;52.162;5.302;2022-07-11T02:06:10;18.30;84.60
43999;DHT22;51319;52.162;5.302;2022-07-11T02:08:36;18.30;84.60
43999;DHT22;51319;52.162;5.302;2022-07-11T02:11:03;18.30;84.40
43999;DHT22;51319;52.162;5.302;2022-07-11T02:13:29;18.30;84.50
43999;DHT22;51319;52.162;5.302;2022-07-11T02:15:56;18.30;84.50
43999;DHT22;51319;52.162;5.302;2022-07-11T02:18:22;18.30;84.40
43999;DHT22;51319;52.162;5.302;2022-07-11T02:20:49;18.20;84.50
43999;DHT22;51319;52.162;5.302;2022-07-11T02:23:16;18.20;84.70
43999;DHT22;51319;52.162;5.302;2022-07-11T02:25:43;18.30;85.00
43999;DHT22;51319;52.162;5.302;2022-07-11T02:28:10;18.20;84.90
43999;DHT22;51319;52.162;5.302;2022-07-11T02:30:38;18.20;85.00
43999;DHT22;51319;52.162;5.302;2022-07-11T02:33:05;18.20;85.10
43999;DHT22;51319;52.162;5.302;2022-07-11T02:35:34;18.20;85.10
43999;DHT22;51319;52.162;5.302;2022-07-11T02:38:01;18.20;85.10
43999;DHT22;51319;52.162;5.302;2022-07-11T02:40:27;18.20;85.10
43999;DHT22;51319;52.162;5.302;2022-07-11T02:42:54;18.10;85.10
43999;DHT22;51319;52.162;5.302;2022-07-11T02:45:21;18.10;85.30
43999;DHT22;51319;52.162;5.302;2022-07-11T02:47:48;18.10;85.40
43999;DHT22;51319;52.162;5.302;2022-07-11T02:50:14;18.20;85.30
43999;DHT22;51319;52.162;5.302;2022-07-11T02:52:41;18.10;85.30
43999;DHT22;51319;52.162;5.302;2022-07-11T02:55:09;18.10;85.20
43999;DHT22;51319;52.162;5.302;2022-07-11T02:57:36;18.10;85.20
43999;DHT22;51319;52.162;5.302;2022-07-11T03:00:06;18.10;85.40
43999;DHT22;51319;52.162;5.302;2022-07-11T03:02:33;18.00;85.40
43999;DHT22;51319;52.162;5.302;2022-07-11T03:04:59;18.10;85.60
43999;DHT22;51319;52.162;5.302;2022-07-11T03:07:26;18.10;85.70
43999;DHT22;51319;52.162;5.302;2022-07-11T03:09:53;18.00;85.70
43999;DHT22;51319;52.162;5.302;2022-07-11T03:12:20;18.00;85.70
43999;DHT22;51319;52.162;5.302;2022-07-11T03:14:47;18.00;85.80
43999;DHT22;51319;52.162;5.302;2022-07-11T03:17:13;18.00;85.90
43999;DHT22;51319;52.162;5.302;2022-07-11T03:19:39;17.90;86.10
43999;DHT22;51319;52.162;5.302;2022-07-11T03:22:05;18.00;86.30
43999;DHT22;51319;52.162;5.302;2022-07-11T03:24:31;18.00;86.40
43999;DHT22;51319;52.162;5.302;2022-07-11T03:26:57;17.90;86.30
43999;DHT22;51319;52.162;5.302;2022-07-11T03:29:24;17.90;86.40
43999;DHT22;51319;52.162;5.302;2022-07-11T03:31:50;17.90;86.70
43999;DHT22;51319;52.162;5.302;2022-07-11T03:34:16;17.90;86.80
43999;DHT22;51319;52.162;5.302;2022-07-11T03:36:43;17.90;86.90
43999;DHT22;51319;52.162;5.302;2022-07-11T03:39:13;17.80;87.00
43999;DHT22;51319;52.162;5.302;2022-07-11T03:41:39;17.80;87.40
43999;DHT22;51319;52.162;5.302;2022-07-11T03:44:05;17.80;87.50
43999;DHT22;51319;52.162;5.302;2022-07-11T03:46:32;17.80;87.60
43999;DHT22;51319;52.162;5.302;2022-07-11T03:48:58;17.80;87.70
43999;DHT22;51319;52.162;5.302;2022-07-11T03:51:24;17.80;87.90
43999;DHT22;51319;52.162;5.302;2022-07-11T03:53:50;17.80;88.10
43999;DHT22;51319;52.162;5.302;2022-07-11T03:56:17;17.80;88.00
43999;DHT22;51319;52.162;5.302;2022-07-11T03:58:48;17.70;88.10
43999;DHT22;51319;52.162;5.302;2022-07-11T04:01:15;17.70;88.10
43999;DHT22;51319;52.162;5.302;2022-07-11T04:03:42;17.70;88.20
43999;DHT22;51319;52.162;5.302;2022-07-11T04:06:09;17.70;88.40
43999;DHT22;51319;52.162;5.302;2022-07-11T04:08:35;17.70;88.50
43999;DHT22;51319;52.162;5.302;2022-07-11T04:11:01;17.70;88.60
43999;DHT22;51319;52.162;5.302;2022-07-11T04:13:27;17.60;88.70
43999;DHT22;51319;52.162;5.302;2022-07-11T04:15:53;17.70;88.80
43999;DHT22;51319;52.162;5.302;2022-07-11T04:18:20;17.70;88.70
43999;DHT22;51319;52.162;5.302;2022-07-11T04:20:46;17.70;88.90
43999;DHT22;51319;52.162;5.302;2022-07-11T04:23:13;17.70;88.90
43999;DHT22;51319;52.162;5.302;2022-07-11T04:25:40;17.70;88.90
43999;DHT22;51319;52.162;5.302;2022-07-11T04:28:06;17.70;89.00
43999;DHT22;51319;52.162;5.302;2022-07-11T04:30:32;17.80;89.00
43999;DHT22;51319;52.162;5.302;2022-07-11T04:32:59;17.70;88.90
43999;DHT22;51319;52.162;5.302;2022-07-11T04:35:26;17.70;88.90
43999;DHT22;51319;52.162;5.302;2022-07-11T04:37:56;17.70;88.90
43999;DHT22;51319;52.162;5.302;2022-07-11T04:40:24;17.80;89.00
43999;DHT22;51319;52.162;5.302;2022-07-11T04:42:51;17.80;89.00
43999;DHT22;51319;52.162;5.302;2022-07-11T04:45:18;17.80;89.00
43999;DHT22;51319;52.162;5.302;2022-07-11T04:47:44;17.80;88.90
43999;DHT22;51319;52.162;5.302;2022-07-11T04:50:10;17.80;88.90
43999;DHT22;51319;52.162;5.302;2022-07-11T04:52:37;17.80;88.90
43999;DHT22;51319;52.162;5.302;2022-07-11T04:55:04;17.80;88.90
43999;DHT22;51319;52.162;5.302;2022-07-11T04:57:30;17.70;89.00
43999;DHT22;51319;52.162;5.302;2022-07-11T04:59:56;17.80;89.40
43999;DHT22;51319;52.162;5.302;2022-07-11T05:02:22;17.80;89.60
43999;DHT22;51319;52.162;5.302;2022-07-11T05:04:48;17.80;89.70
43999;DHT22;51319;52.162;5.302;2022-07-11T05:07:15;17.80;89.80
43999;DHT22;51319;52.162;5.302;2022-07-11T05:09:41;17.80;89.90
43999;DHT22;51319;52.162;5.302;2022-07-11T05:12:08;17.80;89.90
43999;DHT22;51319;52.162;5.302;2022-07-11T05:14:34;17.80;90.00
43999;DHT22;51319;52.162;5.302;2022-07-11T05:17:01;17.80;90.00
43999;DHT22;51319;52.162;5.302;2022-07-11T05:19:27;17.80;90.10
43999;DHT22;51319;52.162;5.302;2022-07-11T05:21:53;17.80;90.20
43999;DHT22;51319;52.162;5.302;2022-07-11T05:24:19;17.80;90.30
43999;DHT22;51319;52.162;5.302;2022-07-11T05:26:45;17.70;90.30
43999;DHT22;51319;52.162;5.302;2022-07-11T05:29:13;17.80;90.50
43999;DHT22;51319;52.162;5.302;2022-07-11T05:31:39;17.80;90.50
43999;DHT22;51319;52.162;5.302;2022-07-11T05:34:06;17.80;90.40
43999;DHT22;51319;52.162;5.302;2022-07-11T05:36:32;17.80;90.40
43999;DHT22;51319;52.162;5.302;2022-07-11T05:38:58;17.80;90.50
43999;DHT22;51319;52.162;5.302;2022-07-11T05:41:24;17.80;90.50
43999;DHT22;51319;52.162;5.302;2022-07-11T05:43:50;17.90;90.60
43999;DHT22;51319;52.162;5.302;2022-07-11T05:46:16;17.90;90.70
43999;DHT22;51319;52.162;5.302;2022-07-11T05:48:43;18.00;90.60
43999;DHT22;51319;52.162;5.302;2022-07-11T05:51:09;17.90;90.50
43999;DHT22;51319;52.162;5.302;2022-07-11T05:53:35;17.90;90.70
43999;DHT22;51319;52.162;5.302;2022-07-11T05:56:01;18.00;90.80
43999;DHT22;51319;52.162;5.302;2022-07-11T05:58:28;18.00;90.70
43999;DHT22;51319;52.162;5.302;2022-07-11T06:00:58;18.00;90.70
43999;DHT22;51319;52.162;5.302;2022-07-11T06:03:24;18.00;90.90
43999;DHT22;51319;52.162;5.302;2022-07-11T06:05:51;18.00;90.70
43999;DHT22;51319;52.162;5.302;2022-07-11T06:08:17;18.10;90.80
43999;DHT22;51319;52.162;5.302;2022-07-11T06:11:02;18.10;90.80
43999;DHT22;51319;52.162;5.302;2022-07-11T06:13:28;18.40;91.10
43999;DHT22;51319;52.162;5.302;2022-07-11T06:15:55;19.10;90.50
43999;DHT22;51319;52.162;5.302;2022-07-11T06:18:22;19.50;89.10
43999;DHT22;51319;52.162;5.302;2022-07-11T06:20:50;20.20;87.10
43999;DHT22;51319;52.162;5.302;2022-07-11T06:23:16;20.40;84.80
43999;DHT22;51319;52.162;5.302;2022-07-11T06:25:43;20.40;83.00
43999;DHT22;51319;52.162;5.302;2022-07-11T06:28:09;20.30;82.40
43999;DHT22;51319;52.162;5.302;2022-07-11T06:30:35;20.20;81.80
43999;DHT22;51319;52.162;5.302;2022-07-11T06:33:03;20.10;81.70
43999;DHT22;51319;52.162;5.302;2022-07-11T06:35:29;20.00;81.90
43999;DHT22;51319;52.162;5.302;2022-07-11T06:37:55;19.90;81.80
43999;DHT22;51319;52.162;5.302;2022-07-11T06:40:22;19.90;81.40
43999;DHT22;51319;52.162;5.302;2022-07-11T06:42:49;19.90;80.90
43999;DHT22;51319;52.162;5.302;2022-07-11T06:45:16;20.10;81.00
43999;DHT22;51319;52.162;5.302;2022-07-11T06:47:42;21.30;79.10
43999;DHT22;51319;52.162;5.302;2022-07-11T06:50:09;21.80;76.20
43999;DHT22;51319;52.162;5.302;2022-07-11T06:52:35;22.60;73.00
43999;DHT22;51319;52.162;5.302;2022-07-11T06:55:02;23.00;70.80
43999;DHT22;51319;52.162;5.302;2022-07-11T06:57:29;23.00;69.00
43999;DHT22;51319;52.162;5.302;2022-07-11T06:59:55;22.60;69.30
43999;DHT22;51319;52.162;5.302;2022-07-11T07:02:21;22.20;69.90
43999;DHT22;51319;52.162;5.302;2022-07-11T07:04:52;21.70;70.50
43999;DHT22;51319;52.162;5.302;2022-07-11T07:07:18;21.30;71.90
43999;DHT22;51319;52.162;5.302;2022-07-11T07:09:45;21.00;73.10
43999;DHT22;51319;52.162;5.302;2022-07-11T07:12:11;20.70;73.80
43999;DHT22;51319;52.162;5.302;2022-07-11T07:14:37;20.60;75.10
43999;DHT22;51319;52.162;5.302;2022-07-11T07:17:04;20.70;75.80
43999;DHT22;51319;52.162;5.302;2022-07-11T07:19:30;20.90;74.80
43999;DHT22;51319;52.162;5.302;2022-07-11T07:21:56;21.00;74.40
43999;DHT22;51319;52.162;5.302;2022-07-11T07:24:22;21.10;74.10
43999;DHT22;51319;52.162;5.302;2022-07-11T07:26:48;21.10;73.50
43999;DHT22;51319;52.162;5.302;2022-07-11T07:29:15;21.10;73.70
43999;DHT22;51319;52.162;5.302;2022-07-11T07:31:41;21.10;73.80
43999;DHT22;51319;52.162;5.302;2022-07-11T07:34:08;21.30;73.70
43999;DHT22;51319;52.162;5.302;2022-07-11T07:36:35;21.50;73.00
43999;DHT22;51319;52.162;5.302;2022-07-11T07:39:02;21.70;72.10
43999;DHT22;51319;52.162;5.302;2022-07-11T07:41:28;21.80;71.10
43999;DHT22;51319;52.162;5.302;2022-07-11T07:43:55;21.70;71.30
43999;DHT22;51319;52.162;5.302;2022-07-11T07:46:21;21.60;71.60
43999;DHT22;51319;52.162;5.302;2022-07-11T07:48:49;21.40;72.10
43999;DHT22;51319;52.162;5.302;2022-07-11T07:51:15;21.20;72.60
43999;DHT22;51319;52.162;5.302;2022-07-11T07:53:41;21.10;73.50
43999;DHT22;51319;52.162;5.302;2022-07-11T07:56:08;21.00;74.00
43999;DHT22;51319;52.162;5.302;2022-07-11T07:58:34;21.00;74.30
43999;DHT22;51319;52.162;5.302;2022-07-11T08:01:00;20.90;74.30
43999;DHT22;51319;52.162;5.302;2022-07-11T08:03:45;20.80;74.60
43999;DHT22;51319;52.162;5.302;2022-07-11T08:06:11;20.70;75.00
43999;DHT22;51319;52.162;5.302;2022-07-11T08:08:37;20.70;75.10
43999;DHT22;51319;52.162;5.302;2022-07-11T08:11:03;20.70;75.40
43999;DHT22;51319;52.162;5.302;2022-07-11T08:13:50;20.60;75.40
43999;DHT22;51319;52.162;5.302;2022-07-11T08:16:16;20.60;75.50
43999;DHT22;51319;52.162;5.302;2022-07-11T08:18:43;20.70;76.00
43999;DHT22;51319;52.162;5.302;2022-07-11T08:21:09;20.70;76.00
43999;DHT22;51319;52.162;5.302;2022-07-11T08:23:40;20.80;75.70
43999;DHT22;51319;52.162;5.302;2022-07-11T08:26:07;20.90;75.50
43999;DHT22;51319;52.162;5.302;2022-07-11T08:28:33;20.90;75.50
43999;DHT22;51319;52.162;5.302;2022-07-11T08:30:59;21.00;75.00
43999;DHT22;51319;52.162;5.302;2022-07-11T08:33:26;21.10;74.80
43999;DHT22;51319;52.162;5.302;2022-07-11T08:35:52;21.20;74.60
43999;DHT22;51319;52.162;5.302;2022-07-11T08:38:19;21.30;75.00
43999;DHT22;51319;52.162;5.302;2022-07-11T08:40:45;21.50;73.90
43999;DHT22;51319;52.162;5.302;2022-07-11T08:43:15;21.80;73.30
43999;DHT22;51319;52.162;5.302;2022-07-11T08:45:43;22.00;72.70
43999;DHT22;51319;52.162;5.302;2022-07-11T08:48:11;22.10;72.10
43999;DHT22;51319;52.162;5.302;2022-07-11T08:50:38;22.10;71.70
43999;DHT22;51319;52.162;5.302;2022-07-11T08:53:05;22.10;71.90
43999;DHT22;51319;52.162;5.302;2022-07-11T08:55:40;22.20;71.30
43999;DHT22;51319;52.162;5.302;2022-07-11T08:58:07;22.40;70.60
43999;DHT22;51319;52.162;5.302;2022-07-11T09:00:34;22.60;69.50
43999;DHT22;51319;52.162;5.302;2022-07-11T09:03:02;22.90;68.30
43999;DHT22;51319;52.162;5.302;2022-07-11T09:05:31;23.00;67.20
43999;DHT22;51319;52.162;5.302;2022-07-11T09:07:57;22.90;66.70
43999;DHT22;51319;52.162;5.302;2022-07-11T09:10:24;22.80;67.10
43999;DHT22;51319;52.162;5.302;2022-07-11T09:13:05;22.70;67.70
43999;DHT22;51319;52.162;5.302;2022-07-11T09:18:02;22.60;67.80
43999;DHT22;51319;52.162;5.302;2022-07-11T09:20:55;22.70;67.80
43999;DHT22;51319;52.162;5.302;2022-07-11T09:23:41;22.70;67.60
43999;DHT22;51319;52.162;5.302;2022-07-11T09:26:33;22.60;68.00
43999;DHT22;51319;52.162;5.302;2022-07-11T09:29:08;22.60;67.00
43999;DHT22;51319;52.162;5.302;2022-07-11T09:31:37;22.50;67.10
43999;DHT22;51319;52.162;5.302;2022-07-11T09:34:09;22.50;67.50
43999;DHT22;51319;52.162;5.302;2022-07-11T09:39:05;22.80;67.20
43999;DHT22;51319;52.162;5.302;2022-07-11T09:41:32;22.90;67.10
43999;DHT22;51319;52.162;5.302;2022-07-11T09:46:41;23.00;66.20
43999;DHT22;51319;52.162;5.302;2022-07-11T09:49:08;23.10;66.10
43999;DHT22;51319;52.162;5.302;2022-07-11T09:51:35;23.10;65.70
43999;DHT22;51319;52.162;5.302;2022-07-11T09:54:03;23.20;65.50
43999;DHT22;51319;52.162;5.302;2022-07-11T09:56:32;23.30;65.20
43999;DHT22;51319;52.162;5.302;2022-07-11T09:59:19;23.30;64.60
43999;DHT22;51319;52.162;5.302;2022-07-11T10:01:45;23.40;64.30
43999;DHT22;51319;52.162;5.302;2022-07-11T10:04:12;23.50;64.20
43999;DHT22;51319;52.162;5.302;2022-07-11T10:06:44;23.70;63.60
43999;DHT22;51319;52.162;5.302;2022-07-11T10:09:10;23.80;63.20
43999;DHT22;51319;52.162;5.302;2022-07-11T10:11:37;23.90;62.30
43999;DHT22;51319;52.162;5.302;2022-07-11T10:14:04;23.90;62.00
43999;DHT22;51319;52.162;5.302;2022-07-11T10:16:59;24.10;61.50
43999;DHT22;51319;52.162;5.302;2022-07-11T10:19:52;24.30;61.40
43999;DHT22;51319;52.162;5.302;2022-07-11T10:22:43;24.40;60.60
43999;DHT22;51319;52.162;5.302;2022-07-11T10:30:45;24.20;61.00
43999;DHT22;51319;52.162;5.302;2022-07-11T10:33:14;24.20;60.90
43999;DHT22;51319;52.162;5.302;2022-07-11T10:35:41;24.20;61.40
43999;DHT22;51319;52.162;5.302;2022-07-11T10:38:08;24.30;62.00
43999;DHT22;51319;52.162;5.302;2022-07-11T10:40:45;24.50;61.60
43999;DHT22;51319;52.162;5.302;2022-07-11T10:46:01;24.80;60.00
43999;DHT22;51319;52.162;5.302;2022-07-11T10:48:30;25.00;60.80
43999;DHT22;51319;52.162;5.302;2022-07-11T10:51:24;25.10;59.70
43999;DHT22;51319;52.162;5.302;2022-07-11T10:53:51;25.40;59.00
43999;DHT22;51319;52.162;5.302;2022-07-11T10:59:22;25.50;58.20
43999;DHT22;51319;52.162;5.302;2022-07-11T11:07:41;25.70;58.30
43999;DHT22;51319;52.162;5.302;2022-07-11T11:15:39;25.80;57.10
43999;DHT22;51319;52.162;5.302;2022-07-11T11:23:33;25.60;57.30
43999;DHT22;51319;52.162;5.302;2022-07-11T11:26:16;25.60;57.30
43999;DHT22;51319;52.162;5.302;2022-07-11T11:29:00;25.50;57.00
43999;DHT22;51319;52.162;5.302;2022-07-11T11:31:28;25.40;57.40
43999;DHT22;51319;52.162;5.302;2022-07-11T11:34:02;25.40;58.30
43999;DHT22;51319;52.162;5.302;2022-07-11T11:36:29;25.40;57.80
43999;DHT22;51319;52.162;5.302;2022-07-11T11:38:56;25.40;58.40
43999;DHT22;51319;52.162;5.302;2022-07-11T11:41:25;25.50;59.00
43999;DHT22;51319;52.162;5.302;2022-07-11T11:43:53;25.50;58.90
43999;DHT22;51319;52.162;5.302;2022-07-11T11:46:24;25.60;57.90
43999;DHT22;51319;52.162;5.302;2022-07-11T11:48:55;25.60;58.50
43999;DHT22;51319;52.162;5.302;2022-07-11T11:51:21;25.70;57.90
43999;DHT22;51319;52.162;5.302;2022-07-11T11:53:51;25.70;57.40
43999;DHT22;51319;52.162;5.302;2022-07-11T11:56:34;25.70;58.50
43999;DHT22;51319;52.162;5.302;2022-07-11T11:59:07;25.70;58.20
43999;DHT22;51319;52.162;5.302;2022-07-11T12:01:44;25.70;57.90
43999;DHT22;51319;52.162;5.302;2022-07-11T12:04:12;25.80;57.10
43999;DHT22;51319;52.162;5.302;2022-07-11T12:06:46;25.70;58.10
43999;DHT22;51319;52.162;5.302;2022-07-11T12:09:22;25.70;57.90
43999;DHT22;51319;52.162;5.302;2022-07-11T12:12:09;25.70;58.50
43999;DHT22;51319;52.162;5.302;2022-07-11T12:14:54;25.60;58.30
43999;DHT22;51319;52.162;5.302;2022-07-11T12:17:28;25.30;58.10
43999;DHT22;51319;52.162;5.302;2022-07-11T12:19:57;25.30;58.90
43999;DHT22;51319;52.162;5.302;2022-07-11T12:22:23;25.30;59.00
43999;DHT22;51319;52.162;5.302;2022-07-11T12:24:52;25.40;59.30
43999;DHT22;51319;52.162;5.302;2022-07-11T12:27:20;25.40;58.70
43999;DHT22;51319;52.162;5.302;2022-07-11T12:29:46;25.40;58.90
43999;DHT22;51319;52.162;5.302;2022-07-11T12:32:19;25.50;58.70
43999;DHT22;51319;52.162;5.302;2022-07-11T12:34:48;25.80;58.00
43999;DHT22;51319;52.162;5.302;2022-07-11T12:37:22;26.10;57.70
43999;DHT22;51319;52.162;5.302;2022-07-11T12:39:53;26.40;57.30
43999;DHT22;51319;52.162;5.302;2022-07-11T12:42:28;27.00;58.40
43999;DHT22;51319;52.162;5.302;2022-07-11T12:44:57;27.90;56.10
43999;DHT22;51319;52.162;5.302;2022-07-11T12:47:38;28.20;55.00
43999;DHT22;51319;52.162;5.302;2022-07-11T12:50:12;28.80;53.20
43999;DHT22;51319;52.162;5.302;2022-07-11T12:52:43;28.80;53.10
43999;DHT22;51319;52.162;5.302;2022-07-11T12:55:25;29.00;53.10
43999;DHT22;51319;52.162;5.302;2022-07-11T13:00:58;28.80;51.00
43999;DHT22;51319;52.162;5.302;2022-07-11T13:03:32;28.80;51.80
43999;DHT22;51319;52.162;5.302;2022-07-11T13:06:01;29.40;51.80
43999;DHT22;51319;52.162;5.302;2022-07-11T13:08:31;29.30;51.10
43999;DHT22;51319;52.162;5.302;2022-07-11T13:11:20;29.20;51.50
43999;DHT22;51319;52.162;5.302;2022-07-11T13:13:48;29.30;50.60
43999;DHT22;51319;52.162;5.302;2022-07-11T13:16:16;30.10;49.80
43999;DHT22;51319;52.162;5.302;2022-07-11T13:18:43;30.70;49.20
43999;DHT22;51319;52.162;5.302;2022-07-11T13:21:09;30.60;47.70
43999;DHT22;51319;52.162;5.302;2022-07-11T13:23:37;30.20;48.00
43999;DHT22;51319;52.162;5.302;2022-07-11T13:26:05;29.60;48.00
43999;DHT22;51319;52.162;5.302;2022-07-11T13:28:32;29.00;48.90
43999;DHT22;51319;52.162;5.302;2022-07-11T13:30:58;28.80;50.80
43999;DHT22;51319;52.162;5.302;2022-07-11T13:33:39;29.10;50.10
43999;DHT22;51319;52.162;5.302;2022-07-11T13:36:07;29.30;49.80
43999;DHT22;51319;52.162;5.302;2022-07-11T13:38:34;30.00;50.70
43999;DHT22;51319;52.162;5.302;2022-07-11T13:41:00;30.70;49.40
43999;DHT22;51319;52.162;5.302;2022-07-11T13:43:27;30.70;48.50
43999;DHT22;51319;52.162;5.302;2022-07-11T13:45:54;30.80;47.40
43999;DHT22;51319;52.162;5.302;2022-07-11T13:48:20;31.00;46.70
43999;DHT22;51319;52.162;5.302;2022-07-11T13:50:47;31.10;46.50
43999;DHT22;51319;52.162;5.302;2022-07-11T13:53:13;31.00;46.40
43999;DHT22;51319;52.162;5.302;2022-07-11T13:55:40;31.00;46.30
43999;DHT22;51319;52.162;5.302;2022-07-11T13:58:07;31.00;48.40
43999;DHT22;51319;52.162;5.302;2022-07-11T14:00:57;30.70;46.30
43999;DHT22;51319;52.162;5.302;2022-07-11T14:03:24;30.20;48.40
43999;DHT22;51319;52.162;5.302;2022-07-11T14:05:50;29.80;47.80
43999;DHT22;51319;52.162;5.302;2022-07-11T14:08:17;29.40;50.40
43999;DHT22;51319;52.162;5.302;2022-07-11T14:10:43;29.10;50.40
43999;DHT22;51319;52.162;5.302;2022-07-11T14:13:11;28.90;50.80
43999;DHT22;51319;52.162;5.302;2022-07-11T14:15:38;28.50;49.30
43999;DHT22;51319;52.162;5.302;2022-07-11T14:18:05;28.10;49.60
43999;DHT22;51319;52.162;5.302;2022-07-11T14:20:31;27.80;51.40
43999;DHT22;51319;52.162;5.302;2022-07-11T14:22:58;27.60;50.50
43999;DHT22;51319;52.162;5.302;2022-07-11T14:25:24;27.40;51.30
43999;DHT22;51319;52.162;5.302;2022-07-11T14:27:51;27.20;50.60
43999;DHT22;51319;52.162;5.302;2022-07-11T14:30:17;27.10;52.00
43999;DHT22;51319;52.162;5.302;2022-07-11T14:32:44;27.00;52.00
43999;DHT22;51319;52.162;5.302;2022-07-11T14:35:10;26.90;50.70
43999;DHT22;51319;52.162;5.302;2022-07-11T14:37:37;26.80;51.10
43999;DHT22;51319;52.162;5.302;2022-07-11T14:40:04;26.80;52.10
43999;DHT22;51319;52.162;5.302;2022-07-11T14:42:30;26.70;51.70
43999;DHT22;51319;52.162;5.302;2022-07-11T14:45:08;26.70;52.10
43999;DHT22;51319;52.162;5.302;2022-07-11T14:47:35;26.60;52.10
43999;DHT22;51319;52.162;5.302;2022-07-11T14:50:03;26.50;52.20
43999;DHT22;51319;52.162;5.302;2022-07-11T14:52:29;26.40;52.90
43999;DHT22;51319;52.162;5.302;2022-07-11T14:54:55;26.30;52.80
43999;DHT22;51319;52.162;5.302;2022-07-11T14:57:22;26.20;53.40
43999;DHT22;51319;52.162;5.302;2022-07-11T14:59:48;26.20;52.90
43999;DHT22;51319;52.162;5.302;2022-07-11T15:02:14;26.10;53.60
43999;DHT22;51319;52.162;5.302;2022-07-11T15:04:40;26.10;53.10
43999;DHT22;51319;52.162;5.302;2022-07-11T15:07:12;26.20;53.10
43999;DHT22;51319;52.162;5.302;2022-07-11T15:09:57;26.20;53.90
43999;DHT22;51319;52.162;5.302;2022-07-11T15:12:42;26.30;53.50
43999;DHT22;51319;52.162;5.302;2022-07-11T15:15:09;26.40;52.70
43999;DHT22;51319;52.162;5.302;2022-07-11T15:17:35;26.40;52.50
43999;DHT22;51319;52.162;5.302;2022-07-11T15:20:02;26.40;52.00
43999;DHT22;51319;52.162;5.302;2022-07-11T15:22:28;26.30;52.60
43999;DHT22;51319;52.162;5.302;2022-07-11T15:24:54;26.20;53.40
43999;DHT22;51319;52.162;5.302;2022-07-11T15:27:21;26.20;53.10
43999;DHT22;51319;52.162;5.302;2022-07-11T15:29:47;26.10;53.10
43999;DHT22;51319;52.162;5.302;2022-07-11T15:32:13;26.00;53.50
43999;DHT22;51319;52.162;5.302;2022-07-11T15:34:41;25.80;53.40
43999;DHT22;51319;52.162;5.302;2022-07-11T15:37:13;25.70;53.90
43999;DHT22;51319;52.162;5.302;2022-07-11T15:39:39;25.70;54.10
43999;DHT22;51319;52.162;5.302;2022-07-11T15:42:06;25.60;54.20
43999;DHT22;51319;52.162;5.302;2022-07-11T15:44:32;25.60;54.30
43999;DHT22;51319;52.162;5.302;2022-07-11T15:46:59;25.50;53.90
43999;DHT22;51319;52.162;5.302;2022-07-11T15:49:26;25.40;54.10
43999;DHT22;51319;52.162;5.302;2022-07-11T15:51:52;25.40;54.00
43999;DHT22;51319;52.162;5.302;2022-07-11T15:54:19;25.40;53.90
43999;DHT22;51319;52.162;5.302;2022-07-11T15:56:45;25.40;53.50
43999;DHT22;51319;52.162;5.302;2022-07-11T15:59:13;25.30;53.30
43999;DHT22;51319;52.162;5.302;2022-07-11T16:01:39;25.20;53.50
43999;DHT22;51319;52.162;5.302;2022-07-11T16:04:05;25.20;53.30
43999;DHT22;51319;52.162;5.302;2022-07-11T16:06:35;25.10;53.80
43999;DHT22;51319;52.162;5.302;2022-07-11T16:09:03;25.00;54.50
43999;DHT22;51319;52.162;5.302;2022-07-11T16:11:30;25.00;54.00
43999;DHT22;51319;52.162;5.302;2022-07-11T16:13:58;25.00;53.90
43999;DHT22;51319;52.162;5.302;2022-07-11T16:16:25;24.90;53.30
43999;DHT22;51319;52.162;5.302;2022-07-11T16:18:53;24.90;53.50